Аэропорт: Внуково. Москва

ICAO: UUWW

METAR:
2018/05/20 23:00
UUWW 202300Z 04003MPS CAVOK 07/04 Q1024 R01/000070 NOSIG
METAR:
2018/05/20 21:21
TAF UUWW 201953Z 2021/2121 VRB01MPS 3100 BR SCT020 TX19/2112Z TN06/2102Z 
      TEMPO 2021/2103 0300 FG FEW002 
      BECMG 2103/2104 9999 NSW 
      BECMG 2105/2107 05007MPS